sensor_id;sensor_type;location;lat;lon;timestamp;pressure;altitude;pressure_sealevel;temperature;humidity
54994;BME280;40891;47.242;8.648;2022-10-31T00:01:23;96878.38;;;11.72;100.00
54994;BME280;40891;47.242;8.648;2022-10-31T00:03:49;96874.84;;;11.71;100.00
54994;BME280;40891;47.242;8.648;2022-10-31T00:06:15;96878.53;;;11.68;100.00
54994;BME280;40891;47.242;8.648;2022-10-31T00:08:46;96874.69;;;11.62;100.00
54994;BME280;40891;47.242;8.648;2022-10-31T00:11:12;96873.16;;;11.61;100.00
54994;BME280;40891;47.242;8.648;2022-10-31T00:13:37;96875.25;;;11.57;100.00
54994;BME280;40891;47.242;8.648;2022-10-31T00:16:03;96869.91;;;11.50;100.00
54994;BME280;40891;47.242;8.648;2022-10-31T00:18:29;96869.03;;;11.53;100.00
54994;BME280;40891;47.242;8.648;2022-10-31T00:21:01;96869.59;;;11.48;100.00
54994;BME280;40891;47.242;8.648;2022-10-31T00:23:27;96866.47;;;11.46;100.00
54994;BME280;40891;47.242;8.648;2022-10-31T00:25:53;96861.56;;;11.50;100.00
54994;BME280;40891;47.242;8.648;2022-10-31T00:28:18;96864.00;;;11.48;100.00
54994;BME280;40891;47.242;8.648;2022-10-31T00:30:43;96859.38;;;11.45;100.00
54994;BME280;40891;47.242;8.648;2022-10-31T00:33:09;96860.25;;;11.42;100.00
54994;BME280;40891;47.242;8.648;2022-10-31T00:35:34;96856.44;;;11.48;100.00
54994;BME280;40891;47.242;8.648;2022-10-31T00:38:00;96858.25;;;11.42;100.00
54994;BME280;40891;47.242;8.648;2022-10-31T00:40:25;96859.59;;;11.38;100.00
54994;BME280;40891;47.242;8.648;2022-10-31T00:42:50;96854.78;;;11.38;100.00
54994;BME280;40891;47.242;8.648;2022-10-31T00:45:16;96861.47;;;11.41;100.00
54994;BME280;40891;47.242;8.648;2022-10-31T00:47:41;96860.47;;;11.35;100.00
54994;BME280;40891;47.242;8.648;2022-10-31T00:50:07;96861.59;;;11.25;100.00
54994;BME280;40891;47.242;8.648;2022-10-31T00:52:32;96859.03;;;11.18;100.00
54994;BME280;40891;47.242;8.648;2022-10-31T00:54:58;96852.66;;;11.17;100.00
54994;BME280;40891;47.242;8.648;2022-10-31T00:57:23;96866.38;;;11.12;100.00
54994;BME280;40891;47.242;8.648;2022-10-31T00:59:48;96861.38;;;11.07;100.00
54994;BME280;40891;47.242;8.648;2022-10-31T01:02:14;96859.91;;;11.02;100.00
54994;BME280;40891;47.242;8.648;2022-10-31T01:04:39;96857.56;;;11.01;100.00
54994;BME280;40891;47.242;8.648;2022-10-31T01:07:04;96853.09;;;11.03;100.00
54994;BME280;40891;47.242;8.648;2022-10-31T01:09:30;96851.13;;;11.04;100.00
54994;BME280;40891;47.242;8.648;2022-10-31T01:11:55;96851.03;;;11.07;100.00
54994;BME280;40891;47.242;8.648;2022-10-31T01:14:20;96839.97;;;11.04;100.00
54994;BME280;40891;47.242;8.648;2022-10-31T01:16:46;96846.22;;;11.08;100.00
54994;BME280;40891;47.242;8.648;2022-10-31T01:19:11;96842.31;;;11.05;100.00
54994;BME280;40891;47.242;8.648;2022-10-31T01:21:36;96846.34;;;11.04;100.00
54994;BME280;40891;47.242;8.648;2022-10-31T01:24:02;96843.00;;;11.09;100.00
54994;BME280;40891;47.242;8.648;2022-10-31T01:26:29;96843.44;;;11.08;100.00
54994;BME280;40891;47.242;8.648;2022-10-31T01:29:05;96845.66;;;11.00;100.00
54994;BME280;40891;47.242;8.648;2022-10-31T01:31:36;96836.66;;;11.09;100.00
54994;BME280;40891;47.242;8.648;2022-10-31T01:34:02;96847.44;;;11.19;100.00
54994;BME280;40891;47.242;8.648;2022-10-31T01:36:30;96838.31;;;11.19;100.00
54994;BME280;40891;47.242;8.648;2022-10-31T01:38:59;96840.88;;;11.26;100.00
54994;BME280;40891;47.242;8.648;2022-10-31T01:41:27;96835.09;;;11.20;100.00
54994;BME280;40891;47.242;8.648;2022-10-31T01:44:03;96828.63;;;11.11;100.00
54994;BME280;40891;47.242;8.648;2022-10-31T01:46:57;96840.53;;;11.11;100.00
54994;BME280;40891;47.242;8.648;2022-10-31T01:49:38;96837.84;;;11.08;100.00
54994;BME280;40891;47.242;8.648;2022-10-31T01:52:25;96836.75;;;11.05;100.00
54994;BME280;40891;47.242;8.648;2022-10-31T01:57:27;96842.09;;;11.00;100.00
54994;BME280;40891;47.242;8.648;2022-10-31T01:59:57;96840.44;;;11.02;100.00
54994;BME280;40891;47.242;8.648;2022-10-31T02:02:25;96838.53;;;10.99;100.00
54994;BME280;40891;47.242;8.648;2022-10-31T02:04:51;96832.97;;;10.99;100.00
54994;BME280;40891;47.242;8.648;2022-10-31T02:07:22;96840.19;;;10.97;100.00
54994;BME280;40891;47.242;8.648;2022-10-31T02:09:51;96839.63;;;10.89;100.00
54994;BME280;40891;47.242;8.648;2022-10-31T02:12:17;96836.06;;;10.88;100.00
54994;BME280;40891;47.242;8.648;2022-10-31T02:14:43;96833.28;;;10.88;100.00
54994;BME280;40891;47.242;8.648;2022-10-31T02:17:09;96830.84;;;10.90;100.00
54994;BME280;40891;47.242;8.648;2022-10-31T02:28:58;96818.59;;;10.75;100.00
54994;BME280;40891;47.242;8.648;2022-10-31T02:31:44;96828.50;;;10.76;100.00
54994;BME280;40891;47.242;8.648;2022-10-31T02:34:19;96817.16;;;10.71;100.00
54994;BME280;40891;47.242;8.648;2022-10-31T02:36:57;96819.13;;;10.70;100.00
54994;BME280;40891;47.242;8.648;2022-10-31T02:47:36;96818.59;;;10.75;100.00
54994;BME280;40891;47.242;8.648;2022-10-31T02:50:33;96824.94;;;10.76;100.00
54994;BME280;40891;47.242;8.648;2022-10-31T02:53:01;96820.81;;;10.80;100.00
54994;BME280;40891;47.242;8.648;2022-10-31T02:57:55;96816.25;;;10.86;100.00
54994;BME280;40891;47.242;8.648;2022-10-31T03:00:22;96816.94;;;10.90;100.00
54994;BME280;40891;47.242;8.648;2022-10-31T03:08:35;96811.72;;;10.92;100.00
54994;BME280;40891;47.242;8.648;2022-10-31T03:11:06;96812.59;;;10.89;100.00
54994;BME280;40891;47.242;8.648;2022-10-31T03:13:51;96815.06;;;10.87;100.00
54994;BME280;40891;47.242;8.648;2022-10-31T03:16:32;96819.72;;;10.90;100.00
54994;BME280;40891;47.242;8.648;2022-10-31T03:19:09;96813.50;;;10.99;100.00
54994;BME280;40891;47.242;8.648;2022-10-31T03:21:47;96804.47;;;11.08;100.00
54994;BME280;40891;47.242;8.648;2022-10-31T03:24:15;96805.59;;;11.10;100.00
54994;BME280;40891;47.242;8.648;2022-10-31T03:26:47;96811.94;;;11.11;100.00
54994;BME280;40891;47.242;8.648;2022-10-31T03:29:16;96810.59;;;11.03;100.00
54994;BME280;40891;47.242;8.648;2022-10-31T03:31:54;96804.16;;;10.93;100.00
54994;BME280;40891;47.242;8.648;2022-10-31T03:34:21;96812.16;;;10.91;100.00
54994;BME280;40891;47.242;8.648;2022-10-31T03:36:49;96805.69;;;10.81;100.00
54994;BME280;40891;47.242;8.648;2022-10-31T03:39:17;96803.81;;;10.78;100.00
54994;BME280;40891;47.242;8.648;2022-10-31T03:41:48;96796.00;;;10.73;100.00
54994;BME280;40891;47.242;8.648;2022-10-31T03:44:17;96799.69;;;10.70;100.00
54994;BME280;40891;47.242;8.648;2022-10-31T03:46:44;96800.34;;;10.62;100.00
54994;BME280;40891;47.242;8.648;2022-10-31T03:49:10;96799.88;;;10.63;100.00
54994;BME280;40891;47.242;8.648;2022-10-31T03:51:46;96796.22;;;10.66;100.00
54994;BME280;40891;47.242;8.648;2022-10-31T03:54:31;96791.00;;;10.68;100.00
54994;BME280;40891;47.242;8.648;2022-10-31T03:57:12;96794.78;;;10.74;100.00
54994;BME280;40891;47.242;8.648;2022-10-31T03:59:43;96789.91;;;10.78;100.00
54994;BME280;40891;47.242;8.648;2022-10-31T04:02:15;96789.13;;;10.90;100.00
54994;BME280;40891;47.242;8.648;2022-10-31T04:04:43;96782.22;;;10.95;100.00
54994;BME280;40891;47.242;8.648;2022-10-31T04:07:10;96795.47;;;11.04;100.00
54994;BME280;40891;47.242;8.648;2022-10-31T04:09:37;96790.47;;;11.11;100.00
54994;BME280;40891;47.242;8.648;2022-10-31T04:12:06;96786.66;;;11.18;100.00
54994;BME280;40891;47.242;8.648;2022-10-31T04:14:36;96787.66;;;11.24;100.00
54994;BME280;40891;47.242;8.648;2022-10-31T04:17:04;96785.88;;;11.30;100.00
54994;BME280;40891;47.242;8.648;2022-10-31T04:19:32;96785.75;;;11.33;100.00
54994;BME280;40891;47.242;8.648;2022-10-31T04:21:58;96784.84;;;11.36;100.00
54994;BME280;40891;47.242;8.648;2022-10-31T04:24:23;96787.53;;;11.40;100.00
54994;BME280;40891;47.242;8.648;2022-10-31T04:26:48;96782.28;;;11.42;100.00
54994;BME280;40891;47.242;8.648;2022-10-31T04:29:14;96777.84;;;11.44;100.00
54994;BME280;40891;47.242;8.648;2022-10-31T04:31:39;96783.72;;;11.46;100.00
54994;BME280;40891;47.242;8.648;2022-10-31T04:34:04;96788.28;;;11.53;100.00
54994;BME280;40891;47.242;8.648;2022-10-31T04:36:30;96785.94;;;11.51;100.00
54994;BME280;40891;47.242;8.648;2022-10-31T04:38:55;96777.91;;;11.53;100.00
54994;BME280;40891;47.242;8.648;2022-10-31T04:41:21;96776.69;;;11.54;100.00
54994;BME280;40891;47.242;8.648;2022-10-31T04:43:46;96779.34;;;11.58;100.00
54994;BME280;40891;47.242;8.648;2022-10-31T04:46:11;96770.44;;;11.63;100.00
54994;BME280;40891;47.242;8.648;2022-10-31T04:48:37;96769.91;;;11.68;100.00
54994;BME280;40891;47.242;8.648;2022-10-31T04:51:02;96765.97;;;11.66;100.00
54994;BME280;40891;47.242;8.648;2022-10-31T04:53:28;96763.06;;;11.69;100.00
54994;BME280;40891;47.242;8.648;2022-10-31T04:55:54;96766.22;;;11.71;100.00
54994;BME280;40891;47.242;8.648;2022-10-31T04:58:19;96761.19;;;11.66;100.00
54994;BME280;40891;47.242;8.648;2022-10-31T05:00:45;96756.75;;;11.69;100.00
54994;BME280;40891;47.242;8.648;2022-10-31T05:03:10;96754.38;;;11.67;100.00
54994;BME280;40891;47.242;8.648;2022-10-31T05:05:35;96754.16;;;11.74;100.00
54994;BME280;40891;47.242;8.648;2022-10-31T05:08:01;96754.72;;;11.69;100.00
54994;BME280;40891;47.242;8.648;2022-10-31T05:10:29;96753.81;;;11.59;100.00
54994;BME280;40891;47.242;8.648;2022-10-31T05:12:59;96758.44;;;11.53;100.00
54994;BME280;40891;47.242;8.648;2022-10-31T05:15:27;96765.13;;;11.43;100.00
54994;BME280;40891;47.242;8.648;2022-10-31T05:17:53;96759.38;;;11.38;100.00
54994;BME280;40891;47.242;8.648;2022-10-31T05:20:20;96756.78;;;11.43;100.00
54994;BME280;40891;47.242;8.648;2022-10-31T05:22:49;96757.16;;;11.33;100.00
54994;BME280;40891;47.242;8.648;2022-10-31T05:25:14;96755.81;;;11.25;100.00
54994;BME280;40891;47.242;8.648;2022-10-31T05:27:41;96753.22;;;11.43;100.00
54994;BME280;40891;47.242;8.648;2022-10-31T05:30:08;96753.50;;;11.23;100.00
54994;BME280;40891;47.242;8.648;2022-10-31T05:32:42;96743.38;;;11.17;100.00
54994;BME280;40891;47.242;8.648;2022-10-31T05:35:08;96754.75;;;11.10;100.00
54994;BME280;40891;47.242;8.648;2022-10-31T05:37:37;96750.63;;;11.14;100.00
54994;BME280;40891;47.242;8.648;2022-10-31T05:40:03;96744.38;;;11.10;100.00
54994;BME280;40891;47.242;8.648;2022-10-31T05:42:29;96738.03;;;11.10;100.00
54994;BME280;40891;47.242;8.648;2022-10-31T05:44:54;96737.34;;;11.06;100.00
54994;BME280;40891;47.242;8.648;2022-10-31T05:47:19;96730.13;;;11.08;100.00
54994;BME280;40891;47.242;8.648;2022-10-31T05:49:45;96728.63;;;11.29;100.00
54994;BME280;40891;47.242;8.648;2022-10-31T05:52:10;96730.78;;;11.12;100.00
54994;BME280;40891;47.242;8.648;2022-10-31T05:54:35;96728.44;;;11.11;100.00
54994;BME280;40891;47.242;8.648;2022-10-31T05:57:01;96728.13;;;11.09;100.00
54994;BME280;40891;47.242;8.648;2022-10-31T05:59:26;96726.78;;;11.01;100.00
54994;BME280;40891;47.242;8.648;2022-10-31T06:01:52;96728.69;;;11.04;100.00
54994;BME280;40891;47.242;8.648;2022-10-31T06:04:17;96725.72;;;10.85;100.00
54994;BME280;40891;47.242;8.648;2022-10-31T06:06:42;96729.69;;;10.97;100.00
54994;BME280;40891;47.242;8.648;2022-10-31T06:09:07;96740.81;;;10.97;100.00
54994;BME280;40891;47.242;8.648;2022-10-31T06:11:33;96739.03;;;11.03;100.00
54994;BME280;40891;47.242;8.648;2022-10-31T06:13:58;96746.72;;;10.99;100.00
54994;BME280;40891;47.242;8.648;2022-10-31T06:16:23;96742.28;;;11.02;100.00
54994;BME280;40891;47.242;8.648;2022-10-31T06:18:49;96742.38;;;11.11;100.00
54994;BME280;40891;47.242;8.648;2022-10-31T06:21:14;96750.47;;;11.18;100.00
54994;BME280;40891;47.242;8.648;2022-10-31T06:23:39;96746.69;;;11.24;100.00
54994;BME280;40891;47.242;8.648;2022-10-31T06:26:05;96754.13;;;11.40;100.00
54994;BME280;40891;47.242;8.648;2022-10-31T06:28:30;96743.97;;;11.46;100.00
54994;BME280;40891;47.242;8.648;2022-10-31T06:30:55;96743.06;;;11.49;100.00
54994;BME280;40891;47.242;8.648;2022-10-31T06:33:21;96744.72;;;11.59;100.00
54994;BME280;40891;47.242;8.648;2022-10-31T06:35:46;96742.44;;;11.67;100.00
54994;BME280;40891;47.242;8.648;2022-10-31T06:38:13;96751.59;;;11.67;100.00
54994;BME280;40891;47.242;8.648;2022-10-31T06:40:38;96748.16;;;11.76;100.00
54994;BME280;40891;47.242;8.648;2022-10-31T06:43:04;96746.00;;;11.80;100.00
54994;BME280;40891;47.242;8.648;2022-10-31T06:45:29;96750.31;;;11.81;100.00
54994;BME280;40891;47.242;8.648;2022-10-31T06:47:55;96747.03;;;11.73;100.00
54994;BME280;40891;47.242;8.648;2022-10-31T06:50:21;96753.91;;;11.81;100.00
54994;BME280;40891;47.242;8.648;2022-10-31T06:53:05;96756.38;;;11.79;100.00
54994;BME280;40891;47.242;8.648;2022-10-31T06:55:31;96757.00;;;11.83;100.00
54994;BME280;40891;47.242;8.648;2022-10-31T06:57:59;96754.22;;;11.83;100.00
54994;BME280;40891;47.242;8.648;2022-10-31T07:00:26;96759.28;;;11.97;100.00
54994;BME280;40891;47.242;8.648;2022-10-31T07:02:59;96750.94;;;11.97;100.00
54994;BME280;40891;47.242;8.648;2022-10-31T07:05:27;96754.06;;;11.99;100.00
54994;BME280;40891;47.242;8.648;2022-10-31T07:07:57;96764.50;;;12.08;100.00
54994;BME280;40891;47.242;8.648;2022-10-31T07:10:24;96760.09;;;12.19;100.00
54994;BME280;40891;47.242;8.648;2022-10-31T07:13:01;96759.19;;;12.22;100.00
54994;BME280;40891;47.242;8.648;2022-10-31T07:15:29;96767.13;;;12.33;100.00
54994;BME280;40891;47.242;8.648;2022-10-31T07:18:06;96759.19;;;12.22;100.00
54994;BME280;40891;47.242;8.648;2022-10-31T07:20:31;96764.13;;;12.18;100.00
54994;BME280;40891;47.242;8.648;2022-10-31T07:22:57;96765.03;;;12.15;100.00
54994;BME280;40891;47.242;8.648;2022-10-31T07:25:23;96762.22;;;12.15;100.00
54994;BME280;40891;47.242;8.648;2022-10-31T07:27:49;96758.13;;;12.29;100.00
54994;BME280;40891;47.242;8.648;2022-10-31T07:30:15;96767.66;;;12.19;100.00
54994;BME280;40891;47.242;8.648;2022-10-31T07:32:44;96764.81;;;12.10;100.00
54994;BME280;40891;47.242;8.648;2022-10-31T07:35:12;96766.75;;;12.22;100.00
54994;BME280;40891;47.242;8.648;2022-10-31T07:37:38;96769.59;;;12.09;100.00
54994;BME280;40891;47.242;8.648;2022-10-31T07:40:04;96768.81;;;12.30;100.00
54994;BME280;40891;47.242;8.648;2022-10-31T07:42:36;96773.19;;;12.32;100.00
54994;BME280;40891;47.242;8.648;2022-10-31T07:45:03;96770.97;;;12.26;100.00
54994;BME280;40891;47.242;8.648;2022-10-31T07:47:29;96772.72;;;12.11;100.00
54994;BME280;40891;47.242;8.648;2022-10-31T07:49:54;96778.97;;;12.15;100.00
54994;BME280;40891;47.242;8.648;2022-10-31T07:52:19;96778.22;;;12.02;100.00
54994;BME280;40891;47.242;8.648;2022-10-31T07:54:45;96781.41;;;11.92;100.00
54994;BME280;40891;47.242;8.648;2022-10-31T07:57:10;96773.63;;;12.08;100.00
54994;BME280;40891;47.242;8.648;2022-10-31T07:59:35;96770.13;;;12.17;100.00
54994;BME280;40891;47.242;8.648;2022-10-31T08:02:01;96775.13;;;12.44;100.00
54994;BME280;40891;47.242;8.648;2022-10-31T08:04:26;96768.97;;;12.05;100.00
54994;BME280;40891;47.242;8.648;2022-10-31T08:06:51;96769.34;;;11.95;100.00
54994;BME280;40891;47.242;8.648;2022-10-31T08:09:17;96769.81;;;12.15;100.00
54994;BME280;40891;47.242;8.648;2022-10-31T08:11:42;96769.59;;;12.31;100.00
54994;BME280;40891;47.242;8.648;2022-10-31T08:14:07;96771.69;;;12.40;100.00
54994;BME280;40891;47.242;8.648;2022-10-31T08:16:33;96773.38;;;12.37;100.00
54994;BME280;40891;47.242;8.648;2022-10-31T08:18:58;96764.59;;;12.48;100.00
54994;BME280;40891;47.242;8.648;2022-10-31T08:21:23;96762.13;;;12.80;100.00
54994;BME280;40891;47.242;8.648;2022-10-31T08:23:49;96756.78;;;12.95;100.00
54994;BME280;40891;47.242;8.648;2022-10-31T08:26:14;96770.50;;;13.11;100.00
54994;BME280;40891;47.242;8.648;2022-10-31T08:28:40;96765.13;;;13.17;100.00
54994;BME280;40891;47.242;8.648;2022-10-31T08:31:05;96767.81;;;13.38;100.00
54994;BME280;40891;47.242;8.648;2022-10-31T08:33:31;96758.88;;;13.71;100.00
54994;BME280;40891;47.242;8.648;2022-10-31T08:35:59;96757.63;;;13.99;100.00
54994;BME280;40891;47.242;8.648;2022-10-31T08:38:25;96752.53;;;13.97;100.00
54994;BME280;40891;47.242;8.648;2022-10-31T08:40:50;96753.56;;;13.63;100.00
54994;BME280;40891;47.242;8.648;2022-10-31T08:43:17;96755.13;;;13.64;100.00
54994;BME280;40891;47.242;8.648;2022-10-31T08:45:43;96768.25;;;13.28;100.00
54994;BME280;40891;47.242;8.648;2022-10-31T08:48:11;96757.66;;;13.14;100.00
54994;BME280;40891;47.242;8.648;2022-10-31T08:50:37;96764.06;;;13.32;100.00
54994;BME280;40891;47.242;8.648;2022-10-31T08:53:04;96753.84;;;13.38;100.00
54994;BME280;40891;47.242;8.648;2022-10-31T08:55:30;96759.22;;;13.15;100.00
54994;BME280;40891;47.242;8.648;2022-10-31T08:57:56;96756.94;;;13.31;100.00
54994;BME280;40891;47.242;8.648;2022-10-31T09:00:22;96753.88;;;13.56;100.00
54994;BME280;40891;47.242;8.648;2022-10-31T09:02:47;96753.59;;;13.91;100.00
54994;BME280;40891;47.242;8.648;2022-10-31T09:05:12;96750.34;;;14.19;100.00
54994;BME280;40891;47.242;8.648;2022-10-31T09:07:38;96755.44;;;14.39;99.98
54994;BME280;40891;47.242;8.648;2022-10-31T09:10:03;96747.66;;;14.61;98.06
54994;BME280;40891;47.242;8.648;2022-10-31T09:12:28;96757.06;;;15.24;95.54
54994;BME280;40891;47.242;8.648;2022-10-31T09:14:54;96746.06;;;15.91;92.19
54994;BME280;40891;47.242;8.648;2022-10-31T09:17:19;96732.53;;;17.91;81.75
54994;BME280;40891;47.242;8.648;2022-10-31T09:19:44;96724.16;;;19.67;73.26
54994;BME280;40891;47.242;8.648;2022-10-31T09:22:10;96722.97;;;20.55;67.76
54994;BME280;40891;47.242;8.648;2022-10-31T09:24:35;96716.03;;;20.56;65.63
54994;BME280;40891;47.242;8.648;2022-10-31T09:27:00;96728.94;;;19.50;68.63
54994;BME280;40891;47.242;8.648;2022-10-31T09:29:26;96724.72;;;18.97;71.33
54994;BME280;40891;47.242;8.648;2022-10-31T09:31:51;96711.69;;;18.74;73.11
54994;BME280;40891;47.242;8.648;2022-10-31T09:34:16;96726.25;;;18.01;76.52
54994;BME280;40891;47.242;8.648;2022-10-31T09:36:42;96728.47;;;17.72;78.00
54994;BME280;40891;47.242;8.648;2022-10-31T09:39:08;96723.84;;;17.19;78.79
54994;BME280;40891;47.242;8.648;2022-10-31T09:44:53;96719.53;;;17.38;79.64
54994;BME280;40891;47.242;8.648;2022-10-31T09:50:17;96720.56;;;17.06;82.19
54994;BME280;40891;47.242;8.648;2022-10-31T09:52:51;96722.72;;;16.96;82.12
54994;BME280;40891;47.242;8.648;2022-10-31T09:55:36;96724.22;;;16.63;83.97
54994;BME280;40891;47.242;8.648;2022-10-31T09:58:02;96727.66;;;16.28;86.55
54994;BME280;40891;47.242;8.648;2022-10-31T10:00:29;96722.13;;;16.19;86.63
54994;BME280;40891;47.242;8.648;2022-10-31T10:02:59;96719.47;;;15.87;89.64
54994;BME280;40891;47.242;8.648;2022-10-31T10:05:34;96714.22;;;15.80;90.28
54994;BME280;40891;47.242;8.648;2022-10-31T10:08:18;96710.94;;;15.81;90.40
54994;BME280;40891;47.242;8.648;2022-10-31T10:20:13;96709.81;;;15.08;94.38
54994;BME280;40891;47.242;8.648;2022-10-31T10:22:47;96705.28;;;15.10;94.84
54994;BME280;40891;47.242;8.648;2022-10-31T10:25:23;96709.47;;;14.82;96.90
54994;BME280;40891;47.242;8.648;2022-10-31T10:30:47;96701.31;;;14.60;98.52
54994;BME280;40891;47.242;8.648;2022-10-31T10:33:20;96703.50;;;14.56;99.06
54994;BME280;40891;47.242;8.648;2022-10-31T10:35:51;96701.59;;;14.62;99.71
54994;BME280;40891;47.242;8.648;2022-10-31T10:38:35;96699.75;;;15.01;97.68
54994;BME280;40891;47.242;8.648;2022-10-31T10:41:10;96693.38;;;15.24;97.11
54994;BME280;40891;47.242;8.648;2022-10-31T10:43:38;96695.28;;;15.51;94.86
54994;BME280;40891;47.242;8.648;2022-10-31T10:49:16;96679.00;;;17.85;81.44
54994;BME280;40891;47.242;8.648;2022-10-31T11:00:18;96666.19;;;18.30;78.41
54994;BME280;40891;47.242;8.648;2022-10-31T11:02:44;96676.44;;;17.82;79.81
54994;BME280;40891;47.242;8.648;2022-10-31T11:05:18;96682.41;;;17.14;84.79
54994;BME280;40891;47.242;8.648;2022-10-31T11:07:45;96685.47;;;16.96;84.70
54994;BME280;40891;47.242;8.648;2022-10-31T11:10:15;96676.63;;;16.54;86.97
54994;BME280;40891;47.242;8.648;2022-10-31T11:12:42;96677.81;;;16.23;88.63
54994;BME280;40891;47.242;8.648;2022-10-31T11:15:19;96681.75;;;16.02;89.58
54994;BME280;40891;47.242;8.648;2022-10-31T11:17:49;96685.97;;;15.83;91.67
54994;BME280;40891;47.242;8.648;2022-10-31T11:22:42;96670.38;;;16.06;91.18
54994;BME280;40891;47.242;8.648;2022-10-31T11:28:08;96654.41;;;16.12;90.11
54994;BME280;40891;47.242;8.648;2022-10-31T11:30:42;96656.25;;;16.29;88.83
54994;BME280;40891;47.242;8.648;2022-10-31T11:33:36;96641.16;;;16.42;89.26
54994;BME280;40891;47.242;8.648;2022-10-31T11:36:14;96647.63;;;16.77;89.11
54994;BME280;40891;47.242;8.648;2022-10-31T11:38:42;96648.53;;;18.04;83.16
54994;BME280;40891;47.242;8.648;2022-10-31T11:43:33;96615.66;;;23.14;61.19
54994;BME280;40891;47.242;8.648;2022-10-31T11:45:59;96620.78;;;25.52;52.18
54994;BME280;40891;47.242;8.648;2022-10-31T11:48:25;96602.22;;;27.77;44.64
54994;BME280;40891;47.242;8.648;2022-10-31T11:50:56;96589.69;;;29.34;40.00
54994;BME280;40891;47.242;8.648;2022-10-31T11:53:27;96591.44;;;31.12;35.99
54994;BME280;40891;47.242;8.648;2022-10-31T11:56:14;96585.47;;;32.45;33.24
54994;BME280;40891;47.242;8.648;2022-10-31T11:58:40;96580.69;;;31.79;33.55
54994;BME280;40891;47.242;8.648;2022-10-31T12:01:05;96575.69;;;32.74;31.69
54994;BME280;40891;47.242;8.648;2022-10-31T12:03:43;96574.53;;;32.60;31.52
54994;BME280;40891;47.242;8.648;2022-10-31T12:06:22;96577.31;;;32.07;32.65
54994;BME280;40891;47.242;8.648;2022-10-31T12:08:49;96576.63;;;33.13;31.54
54994;BME280;40891;47.242;8.648;2022-10-31T12:14:27;96554.38;;;32.60;31.02
54994;BME280;40891;47.242;8.648;2022-10-31T12:17:15;96552.38;;;31.75;32.71
54994;BME280;40891;47.242;8.648;2022-10-31T12:22:45;96532.38;;;32.55;30.79
54994;BME280;40891;47.242;8.648;2022-10-31T12:28:08;96534.38;;;33.44;28.79
54994;BME280;40891;47.242;8.648;2022-10-31T12:30:50;96527.13;;;33.72;28.97
54994;BME280;40891;47.242;8.648;2022-10-31T12:39:24;96530.19;;;33.55;28.03
54994;BME280;40891;47.242;8.648;2022-10-31T12:45:13;96521.94;;;34.47;27.55
54994;BME280;40891;47.242;8.648;2022-10-31T12:50:34;96501.72;;;33.42;29.54
54994;BME280;40891;47.242;8.648;2022-10-31T12:58:37;96479.81;;;34.44;27.70
54994;BME280;40891;47.242;8.648;2022-10-31T13:03:58;96471.84;;;34.23;27.49
54994;BME280;40891;47.242;8.648;2022-10-31T13:06:33;96459.50;;;33.18;30.21
54994;BME280;40891;47.242;8.648;2022-10-31T13:09:05;96463.53;;;32.50;30.24
54994;BME280;40891;47.242;8.648;2022-10-31T13:11:40;96454.22;;;32.78;29.90
54994;BME280;40891;47.242;8.648;2022-10-31T13:14:38;96452.22;;;34.22;28.19
54994;BME280;40891;47.242;8.648;2022-10-31T13:17:05;96443.13;;;34.66;26.42
54994;BME280;40891;47.242;8.648;2022-10-31T13:19:36;96431.53;;;34.75;26.83
54994;BME280;40891;47.242;8.648;2022-10-31T13:22:21;96432.41;;;34.38;27.32
54994;BME280;40891;47.242;8.648;2022-10-31T13:27:53;96423.28;;;33.43;28.94
54994;BME280;40891;47.242;8.648;2022-10-31T13:30:21;96430.03;;;34.15;27.96
54994;BME280;40891;47.242;8.648;2022-10-31T13:33:06;96430.06;;;33.10;28.72
54994;BME280;40891;47.242;8.648;2022-10-31T13:35:44;96426.88;;;33.25;28.81
54994;BME280;40891;47.242;8.648;2022-10-31T13:41:02;96407.91;;;33.12;29.38
54994;BME280;40891;47.242;8.648;2022-10-31T13:48:57;96403.53;;;33.69;29.40
54994;BME280;40891;47.242;8.648;2022-10-31T13:51:28;96404.25;;;33.98;28.74
54994;BME280;40891;47.242;8.648;2022-10-31T13:56:28;96385.16;;;33.26;29.90
54994;BME280;40891;47.242;8.648;2022-10-31T14:01:34;96389.75;;;33.58;29.20
54994;BME280;40891;47.242;8.648;2022-10-31T14:04:05;96383.00;;;33.84;29.05
54994;BME280;40891;47.242;8.648;2022-10-31T14:09:36;96379.25;;;33.62;29.41
54994;BME280;40891;47.242;8.648;2022-10-31T14:12:22;96382.41;;;33.76;28.61
54994;BME280;40891;47.242;8.648;2022-10-31T14:14:50;96371.88;;;32.65;30.81
54994;BME280;40891;47.242;8.648;2022-10-31T14:17:25;96369.91;;;32.87;30.37
54994;BME280;40891;47.242;8.648;2022-10-31T14:22:37;96369.91;;;32.87;30.02
54994;BME280;40891;47.242;8.648;2022-10-31T14:27:50;96356.38;;;31.88;31.87
54994;BME280;40891;47.242;8.648;2022-10-31T14:30:23;96345.31;;;31.41;32.38
54994;BME280;40891;47.242;8.648;2022-10-31T14:32:58;96346.41;;;31.28;32.91
54994;BME280;40891;47.242;8.648;2022-10-31T14:36:10;96347.72;;;31.18;32.49
54994;BME280;40891;47.242;8.648;2022-10-31T14:38:24;96345.94;;;30.46;33.51
54994;BME280;40891;47.242;8.648;2022-10-31T14:43:44;96353.88;;;27.07;39.95
54994;BME280;40891;47.242;8.648;2022-10-31T14:46:41;96353.16;;;26.22;42.26
54994;BME280;40891;47.242;8.648;2022-10-31T14:51:56;96340.72;;;25.03;44.76
54994;BME280;40891;47.242;8.648;2022-10-31T14:54:31;96353.88;;;24.27;46.79
54994;BME280;40891;47.242;8.648;2022-10-31T14:57:03;96353.72;;;23.25;49.50
54994;BME280;40891;47.242;8.648;2022-10-31T14:59:31;96354.81;;;22.60;51.32
54994;BME280;40891;47.242;8.648;2022-10-31T15:02:01;96361.59;;;21.03;56.94
54994;BME280;40891;47.242;8.648;2022-10-31T15:04:28;96371.41;;;20.17;62.21
54994;BME280;40891;47.242;8.648;2022-10-31T15:07:09;96357.13;;;19.71;62.51
54994;BME280;40891;47.242;8.648;2022-10-31T15:09:37;96357.91;;;19.43;64.10